Time;durP1;ratioP1;P1;durP2;ratioP2;P2;SDS_P1;SDS_P2;PMS_P1;PMS_P2;Temp;Humidity;BMP_temperature;BMP_pressure;BME280_temperature;BME280_humidity;BME280_pressure;Samples;Min_cycle;Max_cycle;Signal;HPM_P1;HPM_P2
2023/10/10 00:02:19;;;;;;;458.90;180.27;;;;;;;;;;5006559;28;20219;-55
2023/10/10 00:04:47;;;;;;;513.00;214.70;;;;;;;;;;4999542;28;20185;-55
2023/10/10 00:07:14;;;;;;;495.57;203.60;;;;;;;;;;5016275;28;20183;-54
2023/10/10 00:09:44;;;;;;;455.03;182.67;;;;;;;;;;5005300;28;20207;-55
2023/10/10 00:12:17;;;;;;;499.30;213.37;;;;;;;;;;5006376;28;20192;-55
2023/10/10 00:14:43;;;;;;;515.53;217.17;;;;;;;;;;5003191;28;20184;-55
2023/10/10 00:17:09;;;;;;;502.23;209.60;;;;;;;;;;5007140;28;20266;-55
2023/10/10 00:19:54;;;;;;;527.93;224.93;;;;;;;;;;5005285;28;20258;-55
2023/10/10 00:22:26;;;;;;;441.47;177.30;;;;;;;;;;5009415;28;20275;-55
2023/10/10 00:24:53;;;;;;;472.10;198.07;;;;;;;;;;5006919;28;20188;-55
2023/10/10 00:27:22;;;;;;;485.87;206.30;;;;;;;;;;4999147;28;20539;-55
2023/10/10 00:29:48;;;;;;;587.43;258.60;;;;;;;;;;5003118;28;20196;-55
2023/10/10 00:32:22;;;;;;;413.73;164.93;;;;;;;;;;5011905;28;20184;-55
2023/10/10 00:34:48;;;;;;;533.67;230.43;;;;;;;;;;5004362;28;20573;-55
2023/10/10 00:37:22;;;;;;;479.77;195.33;;;;;;;;;;5013501;28;20211;-55
2023/10/10 00:39:54;;;;;;;485.57;201.83;;;;;;;;;;5008650;28;20200;-55
2023/10/10 00:42:21;;;;;;;453.60;178.97;;;;;;;;;;5011519;28;20204;-55
2023/10/10 00:44:48;;;;;;;514.87;213.97;;;;;;;;;;4999502;28;20267;-54
2023/10/10 00:47:26;;;;;;;515.53;209.73;;;;;;;;;;5005380;28;20189;-55
2023/10/10 00:49:52;;;;;;;507.37;209.97;;;;;;;;;;4998075;28;20211;-55
2023/10/10 00:52:19;;;;;;;486.57;199.67;;;;;;;;;;5003163;28;20192;-55
2023/10/10 00:54:45;;;;;;;482.27;195.63;;;;;;;;;;5000481;28;20507;-55
2023/10/10 00:57:16;;;;;;;426.80;169.97;;;;;;;;;;5013039;28;20200;-55
2023/10/10 00:59:45;;;;;;;442.10;177.47;;;;;;;;;;4997359;28;20215;-55
2023/10/10 01:02:14;;;;;;;538.07;236.50;;;;;;;;;;5008088;28;20219;-55
2023/10/10 01:05:41;;;;;;;450.50;178.70;;;;;;;;;;4995715;28;20181;-55
2023/10/10 01:07:35;;;;;;;478.43;197.93;;;;;;;;;;4998649;28;20281;-55
2023/10/10 01:10:11;;;;;;;492.47;199.10;;;;;;;;;;4995244;28;20250;-55
2023/10/10 01:12:39;;;;;;;499.93;208.63;;;;;;;;;;5001068;28;20180;-55
2023/10/10 01:15:14;;;;;;;491.17;207.13;;;;;;;;;;4987405;28;20189;-55
2023/10/10 01:17:40;;;;;;;538.13;232.30;;;;;;;;;;4987199;28;20242;-55
2023/10/10 01:20:33;;;;;;;526.07;228.27;;;;;;;;;;4997818;28;20751;-55
2023/10/10 01:23:00;;;;;;;514.07;227.30;;;;;;;;;;5004604;28;20246;-55
2023/10/10 01:28:01;;;;;;;499.47;207.87;;;;;;;;;;5002433;28;20188;-55
2023/10/10 01:33:14;;;;;;;520.50;222.47;;;;;;;;;;4998690;28;20214;-55
2023/10/10 01:35:44;;;;;;;423.47;167.00;;;;;;;;;;4994368;28;20203;-55
2023/10/10 01:38:31;;;;;;;486.50;200.70;;;;;;;;;;5003471;28;20189;-55
2023/10/10 01:40:58;;;;;;;539.73;235.83;;;;;;;;;;4993257;28;20386;-55
2023/10/10 01:43:24;;;;;;;500.97;210.37;;;;;;;;;;5005962;28;20184;-54
2023/10/10 01:46:08;;;;;;;457.17;185.00;;;;;;;;;;5012190;28;20583;-55
2023/10/10 01:48:40;;;;;;;451.90;178.23;;;;;;;;;;5010518;28;20579;-55
2023/10/10 01:51:09;;;;;;;504.40;208.10;;;;;;;;;;5001753;28;20229;-55
2023/10/10 01:53:40;;;;;;;485.10;199.30;;;;;;;;;;4984765;28;20203;-55
2023/10/10 01:56:07;;;;;;;470.73;196.13;;;;;;;;;;5001539;28;20278;-55
2023/10/10 01:58:36;;;;;;;496.93;206.70;;;;;;;;;;4997068;28;20205;-55
2023/10/10 02:01:11;;;;;;;516.60;215.30;;;;;;;;;;5005920;28;20627;-55
2023/10/10 02:03:39;;;;;;;460.47;181.83;;;;;;;;;;5013712;28;20232;-55
2023/10/10 02:06:09;;;;;;;545.30;238.63;;;;;;;;;;4997247;28;20222;-56
2023/10/10 02:08:38;;;;;;;448.43;179.10;;;;;;;;;;5004253;28;20217;-55
2023/10/10 02:11:06;;;;;;;520.53;222.17;;;;;;;;;;5006622;28;20187;-55
2023/10/10 02:13:33;;;;;;;515.70;220.17;;;;;;;;;;5003290;28;20175;-55
2023/10/10 02:16:01;;;;;;;484.63;201.00;;;;;;;;;;5004890;28;20199;-55
2023/10/10 02:18:40;;;;;;;495.57;210.30;;;;;;;;;;5011022;28;20660;-54
2023/10/10 02:21:08;;;;;;;454.37;184.10;;;;;;;;;;5009184;28;20552;-55
2023/10/10 02:23:35;;;;;;;443.17;179.73;;;;;;;;;;5014156;28;20190;-55
2023/10/10 02:28:49;;;;;;;459.50;187.03;;;;;;;;;;5005625;28;20238;-55
2023/10/10 02:31:16;;;;;;;456.37;191.07;;;;;;;;;;5010095;28;20187;-55
2023/10/10 02:33:50;;;;;;;458.43;187.47;;;;;;;;;;5015775;28;20199;-55
2023/10/10 02:36:30;;;;;;;523.17;222.07;;;;;;;;;;5006350;28;20208;-55
2023/10/10 02:38:58;;;;;;;534.60;229.57;;;;;;;;;;4985408;28;20210;-55
2023/10/10 02:41:37;;;;;;;450.87;178.47;;;;;;;;;;5016880;28;20214;-55
2023/10/10 02:46:38;;;;;;;513.93;220.53;;;;;;;;;;5003284;28;20295;-55
2023/10/10 02:49:12;;;;;;;537.67;227.07;;;;;;;;;;5010214;28;20207;-55
2023/10/10 02:51:41;;;;;;;466.13;194.50;;;;;;;;;;5007045;28;20188;-55
2023/10/10 02:54:20;;;;;;;476.00;199.33;;;;;;;;;;5009744;28;20189;-55
2023/10/10 02:56:48;;;;;;;562.60;247.73;;;;;;;;;;5003864;28;20250;-55
2023/10/10 02:59:17;;;;;;;478.07;192.67;;;;;;;;;;5008859;28;20274;-55
2023/10/10 03:04:17;;;;;;;515.87;221.83;;;;;;;;;;5000665;28;20868;-55
2023/10/10 03:06:44;;;;;;;548.27;244.83;;;;;;;;;;4981753;28;20212;-55
2023/10/10 03:09:38;;;;;;;538.80;227.40;;;;;;;;;;5007663;28;20239;-55
2023/10/10 03:12:05;;;;;;;538.10;242.53;;;;;;;;;;4990852;28;20649;-55
2023/10/10 03:14:35;;;;;;;463.73;187.07;;;;;;;;;;5001090;28;20514;-55
2023/10/10 03:17:06;;;;;;;511.33;213.83;;;;;;;;;;5007450;28;20196;-55
2023/10/10 03:19:38;;;;;;;442.20;179.73;;;;;;;;;;5005648;28;20802;-55
2023/10/10 03:25:08;;;;;;;520.03;222.00;;;;;;;;;;5006233;28;20267;-55
2023/10/10 03:30:35;;;;;;;413.23;164.87;;;;;;;;;;5004352;28;20265;-55
2023/10/10 03:33:11;;;;;;;486.20;204.17;;;;;;;;;;5006418;28;20204;-55
2023/10/10 03:35:59;;;;;;;453.53;177.20;;;;;;;;;;5014537;28;20180;-55
2023/10/10 03:38:45;;;;;;;480.30;198.83;;;;;;;;;;5015348;28;20185;-55
2023/10/10 05:25:33;;;;;;;411.30;159.20;;;;;;;;;;5047962;28;20247;-49
2023/10/10 05:27:59;;;;;;;401.07;157.60;;;;;;;;;;5047847;28;20230;-49
2023/10/10 05:30:27;;;;;;;410.07;160.53;;;;;;;;;;5047358;28;20593;-50
2023/10/10 05:33:03;;;;;;;402.17;158.07;;;;;;;;;;5046618;28;20800;-52
2023/10/10 05:35:34;;;;;;;388.33;150.90;;;;;;;;;;5049520;28;20164;-50
2023/10/10 05:38:01;;;;;;;377.47;144.93;;;;;;;;;;5049059;28;20180;-50
2023/10/10 05:40:27;;;;;;;395.43;154.37;;;;;;;;;;5048508;28;20302;-49
2023/10/10 05:42:53;;;;;;;414.63;161.93;;;;;;;;;;5048875;28;20207;-49
2023/10/10 05:45:22;;;;;;;419.87;163.00;;;;;;;;;;5048834;28;20324;-49
2023/10/10 05:47:48;;;;;;;395.83;156.87;;;;;;;;;;5049692;28;20179;-49
2023/10/10 05:50:14;;;;;;;393.23;153.50;;;;;;;;;;5049465;28;20204;-49
2023/10/10 05:52:40;;;;;;;376.83;148.47;;;;;;;;;;5069152;28;20709;-49
2023/10/10 05:55:07;;;;;;;400.23;156.20;;;;;;;;;;5068714;28;20558;-49
2023/10/10 05:57:34;;;;;;;405.83;158.83;;;;;;;;;;5050781;28;20325;-49
2023/10/10 06:00:00;;;;;;;391.07;153.07;;;;;;;;;;5056248;28;20199;-49
2023/10/10 06:02:28;;;;;;;399.67;158.13;;;;;;;;;;5048886;28;20264;-49
2023/10/10 06:04:54;;;;;;;381.37;148.57;;;;;;;;;;5048772;28;20244;-49
2023/10/10 06:07:20;;;;;;;387.13;150.40;;;;;;;;;;5048618;28;20796;-49
2023/10/10 06:09:51;;;;;;;394.70;153.40;;;;;;;;;;5048424;28;20199;-49
2023/10/10 06:12:18;;;;;;;382.67;148.63;;;;;;;;;;5048640;28;20175;-49
2023/10/10 06:14:46;;;;;;;407.13;154.70;;;;;;;;;;5048139;28;20274;-49
2023/10/10 06:17:12;;;;;;;400.73;156.13;;;;;;;;;;5048489;28;20203;-49
2023/10/10 06:19:39;;;;;;;404.00;153.70;;;;;;;;;;5051082;28;20229;-50
2023/10/10 06:22:08;;;;;;;406.00;155.30;;;;;;;;;;5048036;28;20211;-50
2023/10/10 06:24:39;;;;;;;414.40;160.43;;;;;;;;;;5047529;28;20178;-50
2023/10/10 06:27:08;;;;;;;426.47;162.00;;;;;;;;;;5048396;28;20261;-49
2023/10/10 06:29:34;;;;;;;405.60;158.37;;;;;;;;;;5047556;28;20212;-48
2023/10/10 06:32:02;;;;;;;404.23;156.53;;;;;;;;;;5047147;28;20214;-49
2023/10/10 06:34:34;;;;;;;417.10;161.50;;;;;;;;;;5047723;28;20614;-49
2023/10/10 06:37:07;;;;;;;392.50;148.57;;;;;;;;;;5057255;28;20178;-49
2023/10/10 06:39:55;;;;;;;417.47;157.97;;;;;;;;;;5068361;28;20203;-49
2023/10/10 06:42:28;;;;;;;407.73;156.00;;;;;;;;;;5047886;28;20531;-49
2023/10/10 06:44:54;;;;;;;421.53;159.57;;;;;;;;;;5047841;28;20634;-49
2023/10/10 06:47:21;;;;;;;392.53;149.60;;;;;;;;;;5047904;28;20175;-49
2023/10/10 06:49:56;;;;;;;404.90;158.10;;;;;;;;;;5047842;28;20195;-49
2023/10/10 06:52:23;;;;;;;392.53;151.50;;;;;;;;;;5049203;28;20182;-51
2023/10/10 06:54:55;;;;;;;404.13;156.00;;;;;;;;;;5052527;28;20186;-51
2023/10/10 06:57:57;;;;;;;395.70;154.60;;;;;;;;;;5052264;28;20168;-52
2023/10/10 07:00:20;;;;;;;413.53;162.17;;;;;;;;;;5050957;28;20308;-51
2023/10/10 07:02:48;;;;;;;405.80;157.67;;;;;;;;;;5052331;28;20965;-51
2023/10/10 07:05:15;;;;;;;413.53;158.57;;;;;;;;;;5051980;28;20597;-51
2023/10/10 07:07:45;;;;;;;409.03;162.40;;;;;;;;;;5052092;28;20171;-51
2023/10/10 07:10:24;;;;;;;416.03;161.90;;;;;;;;;;5051525;28;20199;-51
2023/10/10 07:12:50;;;;;;;444.43;176.00;;;;;;;;;;5050210;28;20262;-51
2023/10/10 07:15:16;;;;;;;394.77;156.87;;;;;;;;;;5051635;28;20689;-51
2023/10/10 07:17:42;;;;;;;414.83;162.70;;;;;;;;;;5066429;28;20195;-51
2023/10/10 07:22:35;;;;;;;379.83;148.27;;;;;;;;;;5071559;28;20210;-51
2023/10/10 07:25:07;;;;;;;398.97;157.37;;;;;;;;;;5071580;28;20194;-51
2023/10/10 07:27:39;;;;;;;411.23;161.87;;;;;;;;;;5071292;28;20536;-51
2023/10/10 07:30:18;;;;;;;420.87;161.53;;;;;;;;;;5071216;28;20203;-51
2023/10/10 07:32:44;;;;;;;397.20;154.77;;;;;;;;;;5031760;28;20241;-50
2023/10/10 07:35:17;;;;;;;418.97;162.97;;;;;;;;;;5044100;28;20199;-51
2023/10/10 07:37:43;;;;;;;411.17;161.60;;;;;;;;;;5051629;28;20214;-51
2023/10/10 07:43:03;;;;;;;421.13;164.00;;;;;;;;;;5052070;28;20528;-51
2023/10/10 07:45:43;;;;;;;421.87;166.10;;;;;;;;;;5051048;28;20386;-51
2023/10/10 07:50:35;;;;;;;406.03;157.57;;;;;;;;;;5050898;28;20294;-51
2023/10/10 07:53:04;;;;;;;409.57;159.37;;;;;;;;;;5062496;28;20182;-51
2023/10/10 07:55:50;;;;;;;408.77;159.57;;;;;;;;;;5071229;28;20675;-51
2023/10/10 07:58:16;;;;;;;416.13;161.63;;;;;;;;;;5063324;28;20200;-51
2023/10/10 08:00:44;;;;;;;413.00;164.67;;;;;;;;;;5050599;28;20179;-51
2023/10/10 08:03:20;;;;;;;418.20;164.20;;;;;;;;;;5056055;28;20301;-51
2023/10/10 08:05:53;;;;;;;401.53;155.70;;;;;;;;;;5070715;28;20212;-51
2023/10/10 08:08:18;;;;;;;410.50;160.10;;;;;;;;;;5070790;28;20220;-51
2023/10/10 08:10:49;;;;;;;423.30;165.77;;;;;;;;;;5070660;28;20171;-51
2023/10/10 08:13:16;;;;;;;427.43;167.87;;;;;;;;;;5055042;28;20207;-51
2023/10/10 08:18:41;;;;;;;408.73;161.03;;;;;;;;;;5050958;28;20171;-51
2023/10/10 08:21:10;;;;;;;404.20;160.53;;;;;;;;;;5050544;28;20645;-51
2023/10/10 08:23:42;;;;;;;414.77;165.30;;;;;;;;;;5036957;28;20235;-51
2023/10/10 08:26:08;;;;;;;411.67;162.60;;;;;;;;;;5030814;28;20161;-51
2023/10/10 08:28:34;;;;;;;422.10;168.30;;;;;;;;;;5032249;28;20200;-51
2023/10/10 08:31:00;;;;;;;416.13;166.23;;;;;;;;;;5050275;28;20171;-51
2023/10/10 08:33:32;;;;;;;403.43;160.97;;;;;;;;;;5050107;28;20199;-51
2023/10/10 08:35:58;;;;;;;411.03;163.13;;;;;;;;;;5050331;28;20615;-51
2023/10/10 08:38:24;;;;;;;423.60;167.97;;;;;;;;;;5050178;28;20187;-51
2023/10/10 08:40:58;;;;;;;415.60;165.67;;;;;;;;;;5049948;28;20979;-51
2023/10/10 08:43:28;;;;;;;428.60;173.63;;;;;;;;;;5050181;28;20167;-52
2023/10/10 08:45:56;;;;;;;416.37;166.47;;;;;;;;;;5050074;28;20230;-51
2023/10/10 08:48:26;;;;;;;424.50;169.80;;;;;;;;;;5049970;28;20477;-51
2023/10/10 08:51:03;;;;;;;422.33;172.40;;;;;;;;;;5050194;28;20155;-51
2023/10/10 08:53:29;;;;;;;416.53;169.37;;;;;;;;;;5050027;28;20203;-51
2023/10/10 08:55:58;;;;;;;420.73;173.20;;;;;;;;;;5049627;28;20172;-51
2023/10/10 08:58:24;;;;;;;422.27;174.00;;;;;;;;;;5048916;28;20171;-51
2023/10/10 09:00:51;;;;;;;427.40;174.07;;;;;;;;;;5049984;28;20245;-51
2023/10/10 09:03:17;;;;;;;415.80;168.73;;;;;;;;;;5049629;28;20203;-51
2023/10/10 09:05:44;;;;;;;428.47;174.37;;;;;;;;;;5049527;28;20172;-51
2023/10/10 09:08:16;;;;;;;432.10;179.40;;;;;;;;;;5049700;28;20266;-51
2023/10/10 09:10:47;;;;;;;425.20;172.40;;;;;;;;;;5049763;28;20556;-51
2023/10/10 09:13:13;;;;;;;412.87;171.30;;;;;;;;;;5053361;28;20277;-51
2023/10/10 09:15:54;;;;;;;412.13;171.60;;;;;;;;;;5068548;28;20657;-51
2023/10/10 09:18:23;;;;;;;416.90;175.23;;;;;;;;;;5069487;28;20206;-51
2023/10/10 09:20:50;;;;;;;416.63;172.93;;;;;;;;;;5069586;28;20270;-51
2023/10/10 09:23:21;;;;;;;422.03;175.70;;;;;;;;;;5069107;28;20473;-51
2023/10/10 09:25:57;;;;;;;419.13;179.53;;;;;;;;;;5069027;28;20206;-51
2023/10/10 09:28:30;;;;;;;413.73;169.97;;;;;;;;;;5056507;28;20677;-51
2023/10/10 09:31:03;;;;;;;411.97;172.03;;;;;;;;;;5049424;28;20177;-51
2023/10/10 09:33:30;;;;;;;423.80;177.60;;;;;;;;;;5049414;28;20186;-51
2023/10/10 09:36:09;;;;;;;423.23;176.50;;;;;;;;;;5048907;28;20182;-51
2023/10/10 09:38:49;;;;;;;425.03;178.00;;;;;;;;;;5049537;28;20199;-51
2023/10/10 09:44:30;;;;;;;334.10;148.97;;;;;;;;;;5050613;28;20160;-51
2023/10/10 09:47:40;;;;;;;334.37;152.43;;;;;;;;;;5049769;28;20668;-51
2023/10/10 09:52:59;;;;;;;322.53;146.90;;;;;;;;;;5050576;28;20163;-51
2023/10/10 09:58:15;;;;;;;429.50;181.47;;;;;;;;;;5068198;28;20175;-51
2023/10/10 10:05:58;;;;;;;422.90;177.67;;;;;;;;;;5050433;28;20185;-51
2023/10/10 10:08:37;;;;;;;420.80;185.53;;;;;;;;;;5047510;28;20523;-51
2023/10/10 10:11:11;;;;;;;416.77;181.33;;;;;;;;;;5048515;28;20171;-52
2023/10/10 10:13:37;;;;;;;411.97;173.57;;;;;;;;;;5048242;28;20155;-51
2023/10/10 10:16:19;;;;;;;411.90;178.10;;;;;;;;;;5048354;28;20184;-51
2023/10/10 10:18:46;;;;;;;418.03;178.83;;;;;;;;;;5029704;28;20214;-51
2023/10/10 10:21:30;;;;;;;435.03;192.10;;;;;;;;;;5049590;28;20184;-51
2023/10/10 10:24:15;;;;;;;424.53;181.37;;;;;;;;;;5068488;28;20215;-51
2023/10/10 10:26:44;;;;;;;442.57;199.33;;;;;;;;;;5060603;28;20534;-51
2023/10/10 10:29:22;;;;;;;427.67;185.70;;;;;;;;;;5047806;28;20279;-51
2023/10/10 10:31:51;;;;;;;428.57;189.10;;;;;;;;;;5048528;28;20649;-51
2023/10/10 10:34:32;;;;;;;430.23;185.20;;;;;;;;;;5048199;28;20238;-51
2023/10/10 10:37:20;;;;;;;432.70;187.47;;;;;;;;;;5048000;28;20179;-51
2023/10/10 10:40:23;;;;;;;413.77;181.70;;;;;;;;;;5047761;28;20249;-51
2023/10/10 10:42:38;;;;;;;405.90;174.40;;;;;;;;;;5047898;28;20833;-51
2023/10/10 10:45:26;;;;;;;426.47;181.17;;;;;;;;;;5047916;28;20176;-51
2023/10/10 10:48:01;;;;;;;422.23;180.77;;;;;;;;;;5048051;28;20322;-51
2023/10/10 10:50:28;;;;;;;415.70;181.17;;;;;;;;;;5047641;28;20680;-51
2023/10/10 10:52:58;;;;;;;433.10;186.03;;;;;;;;;;5048142;28;20187;-51
2023/10/10 10:55:28;;;;;;;438.53;187.33;;;;;;;;;;5047640;28;20660;-51
2023/10/10 10:58:06;;;;;;;421.33;178.87;;;;;;;;;;5047574;28;20190;-51
2023/10/10 11:00:56;;;;;;;419.60;180.77;;;;;;;;;;5047546;28;20270;-51
2023/10/10 11:03:33;;;;;;;420.13;181.77;;;;;;;;;;5048059;28;20195;-51
2023/10/10 11:06:00;;;;;;;434.67;189.37;;;;;;;;;;5047877;28;20217;-51
2023/10/10 11:14:00;;;;;;;418.20;176.60;;;;;;;;;;5027993;28;20632;-51
2023/10/10 11:16:39;;;;;;;421.27;179.27;;;;;;;;;;5027942;28;20196;-51
2023/10/10 11:21:54;;;;;;;408.27;179.13;;;;;;;;;;5053583;28;20297;-51
2023/10/10 11:24:29;;;;;;;411.27;173.27;;;;;;;;;;5067768;28;20178;-51
2023/10/10 11:29:41;;;;;;;418.13;183.07;;;;;;;;;;5067937;28;20194;-51
2023/10/10 11:32:08;;;;;;;406.57;179.30;;;;;;;;;;5063858;28;20262;-52
2023/10/10 11:34:44;;;;;;;409.07;180.03;;;;;;;;;;5047751;28;20183;-51
2023/10/10 11:37:25;;;;;;;413.70;182.10;;;;;;;;;;5047775;28;20237;-51
2023/10/10 11:39:57;;;;;;;427.57;191.27;;;;;;;;;;5050778;28;20223;-51
2023/10/10 11:42:33;;;;;;;416.67;185.50;;;;;;;;;;5051599;28;20194;-52
2023/10/10 11:45:06;;;;;;;417.77;189.33;;;;;;;;;;5051469;28;20634;-51
2023/10/10 11:47:42;;;;;;;420.07;183.40;;;;;;;;;;5051412;28;20176;-51
2023/10/10 11:50:08;;;;;;;419.77;188.90;;;;;;;;;;5051252;28;20211;-51
2023/10/10 11:52:34;;;;;;;421.13;185.97;;;;;;;;;;5051545;28;20525;-51
2023/10/10 11:55:01;;;;;;;411.47;183.30;;;;;;;;;;5051308;28;20187;-52
2023/10/10 11:57:30;;;;;;;411.23;184.00;;;;;;;;;;5045698;28;20180;-51
2023/10/10 11:59:58;;;;;;;405.17;185.10;;;;;;;;;;5030640;28;20282;-51
2023/10/10 12:02:39;;;;;;;409.53;186.57;;;;;;;;;;5031297;28;20278;-51
2023/10/10 12:05:15;;;;;;;412.07;184.23;;;;;;;;;;5031206;28;20184;-51
2023/10/10 12:07:41;;;;;;;431.03;193.73;;;;;;;;;;5031014;28;20577;-51
2023/10/10 12:10:07;;;;;;;428.53;192.50;;;;;;;;;;5030555;28;20197;-51
2023/10/10 12:12:33;;;;;;;426.80;190.37;;;;;;;;;;5030948;28;20601;-51
2023/10/10 12:15:00;;;;;;;416.87;187.97;;;;;;;;;;5046407;28;20267;-51
2023/10/10 12:17:28;;;;;;;419.40;187.07;;;;;;;;;;5050583;28;20209;-51
2023/10/10 12:19:56;;;;;;;442.37;207.00;;;;;;;;;;5050530;28;20677;-51
2023/10/10 12:22:22;;;;;;;412.93;193.07;;;;;;;;;;5070345;28;20210;-52
2023/10/10 12:24:50;;;;;;;416.73;190.10;;;;;;;;;;5070496;28;20195;-52
2023/10/10 12:27:16;;;;;;;422.83;198.47;;;;;;;;;;5070382;28;20241;-51
2023/10/10 12:29:47;;;;;;;433.17;198.93;;;;;;;;;;5069805;28;20601;-52
2023/10/10 12:32:18;;;;;;;429.63;196.43;;;;;;;;;;5050326;28;20701;-51
2023/10/10 12:34:45;;;;;;;416.17;183.60;;;;;;;;;;5050673;28;20166;-51
2023/10/10 12:37:12;;;;;;;412.87;188.67;;;;;;;;;;5050842;28;20194;-52
2023/10/10 12:39:38;;;;;;;421.63;193.03;;;;;;;;;;5050213;28;20279;-51
2023/10/10 12:42:04;;;;;;;422.17;195.43;;;;;;;;;;5050113;28;20682;-52
2023/10/10 12:44:30;;;;;;;432.70;199.50;;;;;;;;;;5050391;28;20219;-51
2023/10/10 12:46:59;;;;;;;425.27;196.60;;;;;;;;;;5050099;28;20211;-51
2023/10/10 12:49:36;;;;;;;419.97;192.37;;;;;;;;;;5049268;28;20231;-51
2023/10/10 12:52:02;;;;;;;427.33;193.93;;;;;;;;;;5049596;28;20166;-51
2023/10/10 12:54:34;;;;;;;434.53;194.23;;;;;;;;;;5049921;28;20249;-51
2023/10/10 12:57:05;;;;;;;423.37;193.80;;;;;;;;;;5050131;28;20172;-51
2023/10/10 12:59:31;;;;;;;421.40;190.80;;;;;;;;;;5049351;28;20199;-51
2023/10/10 13:02:00;;;;;;;407.47;187.33;;;;;;;;;;5049684;28;20214;-52
2023/10/10 13:04:31;;;;;;;421.23;191.20;;;;;;;;;;5049791;28;20507;-52
2023/10/10 13:07:02;;;;;;;409.57;188.37;;;;;;;;;;5049931;28;20239;-52
2023/10/10 13:09:28;;;;;;;423.10;188.77;;;;;;;;;;5049589;28;20203;-52
2023/10/10 13:11:56;;;;;;;425.17;192.43;;;;;;;;;;5049579;28;20183;-51
2023/10/10 13:14:24;;;;;;;430.03;193.73;;;;;;;;;;5049709;28;20600;-51
2023/10/10 13:19:21;;;;;;;418.80;190.53;;;;;;;;;;5049396;28;20237;-52
2023/10/10 13:21:47;;;;;;;426.47;192.60;;;;;;;;;;5048732;28;20610;-51
2023/10/10 13:24:13;;;;;;;416.33;190.03;;;;;;;;;;5048964;28;20365;-51
2023/10/10 13:26:49;;;;;;;409.33;185.23;;;;;;;;;;5049413;28;20230;-51
2023/10/10 13:29:16;;;;;;;421.10;191.77;;;;;;;;;;5049414;28;20735;-51
2023/10/10 13:31:44;;;;;;;434.67;205.60;;;;;;;;;;5049053;28;20167;-52
2023/10/10 13:34:11;;;;;;;430.07;194.03;;;;;;;;;;5049220;28;20188;-51
2023/10/10 13:36:36;;;;;;;415.87;189.40;;;;;;;;;;5049022;28;20305;-52
2023/10/10 13:39:07;;;;;;;421.83;193.57;;;;;;;;;;5048973;28;20286;-52
2023/10/10 13:41:35;;;;;;;406.37;184.40;;;;;;;;;;5049045;28;20261;-51
2023/10/10 13:44:03;;;;;;;426.93;187.80;;;;;;;;;;5049274;28;20184;-52
2023/10/10 13:46:32;;;;;;;430.47;197.00;;;;;;;;;;5048663;28;20188;-52
2023/10/10 13:48:58;;;;;;;433.53;199.63;;;;;;;;;;5048153;28;20203;-52
2023/10/10 13:51:27;;;;;;;434.63;195.90;;;;;;;;;;5047208;28;20176;-51
2023/10/10 13:53:55;;;;;;;438.23;195.87;;;;;;;;;;5047187;28;20696;-51
2023/10/10 13:56:21;;;;;;;443.27;194.80;;;;;;;;;;5047250;28;20198;-51
2023/10/10 13:58:47;;;;;;;443.17;197.80;;;;;;;;;;5047120;28;20219;-51
2023/10/10 14:01:14;;;;;;;432.87;197.10;;;;;;;;;;5046834;28;20518;-51
2023/10/10 14:03:46;;;;;;;425.80;196.57;;;;;;;;;;5047402;28;20168;-51
2023/10/10 14:06:20;;;;;;;424.90;193.87;;;;;;;;;;5030068;28;20167;-51
2023/10/10 14:08:49;;;;;;;422.43;194.77;;;;;;;;;;5047267;28;20206;-52
2023/10/10 14:11:20;;;;;;;421.03;192.17;;;;;;;;;;5047100;28;20172;-52
2023/10/10 14:13:48;;;;;;;418.10;185.57;;;;;;;;;;5047440;28;20178;-52
2023/10/10 14:16:14;;;;;;;421.80;188.73;;;;;;;;;;5047245;28;20571;-52
2023/10/10 14:18:43;;;;;;;426.43;190.37;;;;;;;;;;5046890;28;20192;-51
2023/10/10 14:21:10;;;;;;;445.57;199.77;;;;;;;;;;5047281;28;20634;-51
2023/10/10 14:23:37;;;;;;;401.83;186.83;;;;;;;;;;5047220;28;20321;-52
2023/10/10 14:26:12;;;;;;;415.43;191.93;;;;;;;;;;5046936;28;20167;-52
2023/10/10 14:28:39;;;;;;;415.20;188.63;;;;;;;;;;5047192;28;20699;-52
2023/10/10 14:31:05;;;;;;;440.50;200.37;;;;;;;;;;5046764;28;20175;-50
2023/10/10 14:33:31;;;;;;;431.80;196.83;;;;;;;;;;5046904;28;20172;-50
2023/10/10 14:35:57;;;;;;;441.77;205.93;;;;;;;;;;5046723;28;20254;-50
2023/10/10 14:38:23;;;;;;;426.13;200.00;;;;;;;;;;5046784;28;20626;-50
2023/10/10 14:40:49;;;;;;;421.57;191.87;;;;;;;;;;5046753;28;20789;-50
2023/10/10 14:43:15;;;;;;;434.20;199.40;;;;;;;;;;5046769;28;20324;-50
2023/10/10 14:45:44;;;;;;;417.70;194.50;;;;;;;;;;5046613;28;20168;-50
2023/10/10 14:48:14;;;;;;;435.33;200.63;;;;;;;;;;5046862;28;20194;-50
2023/10/10 14:50:40;;;;;;;436.53;200.43;;;;;;;;;;5047087;28;20239;-50
2023/10/10 14:53:09;;;;;;;427.43;198.20;;;;;;;;;;5046629;28;20709;-50
2023/10/10 14:55:39;;;;;;;426.67;198.10;;;;;;;;;;5046672;28;20178;-50
2023/10/10 14:58:09;;;;;;;428.73;196.50;;;;;;;;;;5046605;28;20179;-50
2023/10/10 15:00:43;;;;;;;417.30;194.87;;;;;;;;;;5046466;28;20601;-50
2023/10/10 15:03:13;;;;;;;411.13;193.07;;;;;;;;;;5046746;28;20203;-50
2023/10/10 15:05:52;;;;;;;417.47;188.80;;;;;;;;;;5046799;28;20179;-50
2023/10/10 15:08:19;;;;;;;450.13;202.60;;;;;;;;;;5035091;28;20168;-50
2023/10/10 15:10:45;;;;;;;423.47;198.80;;;;;;;;;;5055445;28;20275;-52
2023/10/10 15:13:15;;;;;;;439.67;205.20;;;;;;;;;;5066924;28;20189;-51
2023/10/10 15:15:45;;;;;;;423.30;194.37;;;;;;;;;;5070436;28;20570;-52
2023/10/10 15:18:11;;;;;;;424.73;198.37;;;;;;;;;;5070787;28;20567;-52
2023/10/10 15:20:38;;;;;;;435.43;202.20;;;;;;;;;;5070611;28;20218;-52
2023/10/10 15:23:04;;;;;;;415.77;191.83;;;;;;;;;;5052270;28;20245;-52
2023/10/10 15:25:30;;;;;;;440.50;203.63;;;;;;;;;;5070508;28;20248;-52
2023/10/10 15:27:57;;;;;;;429.17;199.17;;;;;;;;;;5070123;28;20641;-52
2023/10/10 15:30:23;;;;;;;436.93;202.00;;;;;;;;;;5070103;28;20213;-52
2023/10/10 15:32:56;;;;;;;427.20;198.40;;;;;;;;;;5070063;28;20187;-52
2023/10/10 15:35:23;;;;;;;434.57;203.07;;;;;;;;;;5070520;28;20220;-52
2023/10/10 15:37:49;;;;;;;416.60;191.53;;;;;;;;;;5070615;28;20412;-51
2023/10/10 15:40:21;;;;;;;418.90;196.73;;;;;;;;;;5070194;28;20199;-51
2023/10/10 15:42:54;;;;;;;424.63;198.33;;;;;;;;;;5070158;28;20199;-52
2023/10/10 15:45:20;;;;;;;437.73;196.10;;;;;;;;;;5070162;28;20175;-51
2023/10/10 15:47:52;;;;;;;435.87;193.97;;;;;;;;;;5069910;28;20460;-51
2023/10/10 15:50:18;;;;;;;433.03;193.37;;;;;;;;;;5069611;28;20673;-51
2023/10/10 15:52:48;;;;;;;421.93;190.83;;;;;;;;;;5069702;28;20241;-51
2023/10/10 15:55:18;;;;;;;420.10;187.93;;;;;;;;;;5069642;28;20179;-52
2023/10/10 15:57:44;;;;;;;419.03;187.33;;;;;;;;;;5070063;28;20598;-51
2023/10/10 16:00:15;;;;;;;413.57;187.10;;;;;;;;;;5069594;28;20205;-51
2023/10/10 16:02:41;;;;;;;443.57;198.53;;;;;;;;;;5069318;28;20694;-52
2023/10/10 16:05:07;;;;;;;427.20;190.20;;;;;;;;;;5069581;28;20250;-51
2023/10/10 16:07:33;;;;;;;421.03;183.77;;;;;;;;;;5051344;28;20171;-51
2023/10/10 16:09:59;;;;;;;415.60;180.47;;;;;;;;;;5069557;28;20198;-51
2023/10/10 16:12:25;;;;;;;423.77;184.47;;;;;;;;;;5069594;28;20629;-52
2023/10/10 16:14:51;;;;;;;426.07;185.17;;;;;;;;;;5069488;28;20175;-51
2023/10/10 16:17:16;;;;;;;431.43;186.27;;;;;;;;;;5042809;23;20231;-51
2023/10/10 16:19:43;;;;;;;407.63;176.60;;;;;;;;;;5035037;28;20199;-53
2023/10/10 16:22:13;;;;;;;429.30;187.90;;;;;;;;;;5040465;28;20900;-54
2023/10/10 16:24:39;;;;;;;430.00;188.70;;;;;;;;;;5029967;28;20210;-54
2023/10/10 16:27:05;;;;;;;409.33;180.03;;;;;;;;;;5037365;28;20204;-53
2023/10/10 16:29:34;;;;;;;433.93;185.07;;;;;;;;;;5017656;28;20232;-54
2023/10/10 16:32:08;;;;;;;404.47;177.07;;;;;;;;;;5032348;28;20173;-51
2023/10/10 16:34:35;;;;;;;415.53;182.27;;;;;;;;;;5029567;28;20534;-51
2023/10/10 16:37:01;;;;;;;404.23;178.50;;;;;;;;;;5029458;28;20654;-51
2023/10/10 16:39:27;;;;;;;435.37;187.70;;;;;;;;;;5029234;28;20538;-51
2023/10/10 16:41:58;;;;;;;428.73;185.10;;;;;;;;;;5029121;28;20250;-51
2023/10/10 16:44:24;;;;;;;427.50;186.60;;;;;;;;;;5032302;28;20160;-50
2023/10/10 16:46:50;;;;;;;427.20;183.67;;;;;;;;;;5035280;28;20187;-51
2023/10/10 16:49:19;;;;;;;402.87;179.17;;;;;;;;;;5035337;28;20201;-52
2023/10/10 16:51:46;;;;;;;404.43;173.93;;;;;;;;;;5030150;28;20173;-51